createdAt,value
2019-03-15T00:00:10.067Z,18.63
2019-03-15T00:02:39.458Z,21.10
2019-03-15T00:05:08.734Z,16.17
2019-03-15T00:07:38.063Z,18.00
2019-03-15T00:10:08.148Z,23.53
2019-03-15T00:12:37.441Z,19.83
2019-03-15T00:15:06.772Z,20.10
2019-03-15T00:17:36.101Z,23.13
2019-03-15T00:20:05.710Z,23.40
2019-03-15T00:22:35.156Z,15.87
2019-03-15T00:25:06.075Z,16.37
2019-03-15T00:27:35.465Z,21.00
2019-03-15T00:30:06.984Z,23.53
2019-03-15T00:32:36.270Z,18.40
2019-03-15T00:35:06.105Z,15.07
2019-03-15T00:37:35.398Z,23.43
2019-03-15T00:40:05.390Z,22.53
2019-03-15T00:42:34.752Z,18.20
2019-03-15T00:45:04.310Z,22.67
2019-03-15T00:47:33.674Z,16.20
2019-03-15T00:50:02.982Z,19.20
2019-03-15T00:52:32.261Z,16.60
2019-03-15T00:55:01.589Z,17.73
2019-03-15T00:57:30.971Z,12.93
2019-03-15T01:00:00.402Z,12.97
2019-03-15T01:02:29.873Z,12.70
2019-03-15T01:04:59.183Z,13.00
2019-03-15T01:07:28.540Z,16.70
2019-03-15T01:09:57.939Z,15.07
2019-03-15T01:12:27.596Z,15.68
2019-03-15T01:14:58.005Z,17.50
2019-03-15T01:17:27.441Z,13.03
2019-03-15T01:19:56.726Z,13.80
2019-03-15T01:22:26.055Z,15.53
2019-03-15T01:24:55.368Z,15.33
2019-03-15T01:27:24.657Z,16.90
2019-03-15T01:29:53.960Z,15.37
2019-03-15T01:32:23.319Z,13.37
2019-03-15T01:34:52.737Z,12.87
2019-03-15T01:37:22.140Z,13.23
2019-03-15T01:39:51.763Z,18.70
2019-03-15T01:42:21.891Z,15.77
2019-03-15T01:44:51.644Z,14.93
2019-03-15T01:47:20.923Z,18.20
2019-03-15T01:49:50.250Z,14.33
2019-03-15T01:52:19.612Z,15.57
2019-03-15T01:54:48.980Z,15.07
2019-03-15T01:57:18.286Z,15.43
2019-03-15T01:59:48.380Z,19.53
2019-03-15T02:02:17.774Z,12.67
2019-03-15T02:04:47.123Z,14.07
2019-03-15T02:07:16.573Z,10.90
2019-03-15T02:09:45.900Z,14.13
2019-03-15T02:12:15.284Z,20.97
2019-03-15T02:14:44.496Z,15.07
2019-03-15T02:17:13.805Z,12.77
2019-03-15T02:19:43.130Z,19.30
2019-03-15T02:22:12.538Z,18.27
2019-03-15T02:24:41.850Z,17.37
2019-03-15T02:27:11.251Z,15.70
2019-03-15T02:29:40.632Z,20.67
2019-03-15T02:32:09.968Z,16.67
2019-03-15T02:34:39.284Z,22.30
2019-03-15T02:37:08.608Z,22.30
2019-03-15T02:39:37.902Z,25.30
2019-03-15T02:42:07.351Z,18.07
2019-03-15T02:44:36.628Z,21.13
2019-03-15T02:47:05.950Z,25.27
2019-03-15T02:49:35.248Z,19.13
2019-03-15T02:52:04.548Z,24.20
2019-03-15T02:54:33.817Z,17.47
2019-03-15T02:57:03.173Z,21.47
2019-03-15T02:59:32.454Z,17.87
2019-03-15T03:02:01.831Z,17.37
2019-03-15T03:04:31.150Z,15.60
2019-03-15T03:07:00.466Z,21.23
2019-03-15T03:09:29.777Z,19.50
2019-03-15T03:11:59.172Z,19.97
2019-03-15T03:14:34.601Z,17.90
2019-03-15T03:17:03.951Z,12.47
2019-03-15T03:19:33.216Z,13.07
2019-03-15T03:22:02.520Z,16.03
2019-03-15T03:38:39.184Z,15.03
2019-03-15T04:05:56.918Z,11.97
2019-03-15T04:08:27.571Z,22.57
2019-03-15T04:10:56.896Z,19.63
2019-03-15T04:13:26.275Z,22.03
2019-03-15T04:15:55.549Z,17.90
2019-03-15T04:18:24.846Z,22.77
2019-03-15T04:20:54.138Z,19.47
2019-03-15T04:23:23.449Z,24.43
2019-03-15T04:25:52.737Z,23.77
2019-03-15T04:28:22.160Z,26.33
2019-03-15T04:30:51.460Z,17.50
2019-03-15T04:33:20.833Z,26.23
2019-03-15T04:35:50.126Z,26.47
2019-03-15T04:38:19.481Z,27.67
2019-03-15T04:40:48.770Z,16.63
2019-03-15T04:43:18.102Z,22.93
2019-03-15T04:45:47.402Z,23.40
2019-03-15T04:48:16.667Z,16.63
2019-03-15T04:50:45.997Z,18.50
2019-03-15T04:53:15.402Z,26.23
2019-03-15T04:55:44.682Z,22.20
2019-03-15T04:58:14.003Z,33.67
2019-03-15T05:00:43.364Z,23.87
2019-03-15T05:03:12.708Z,22.67
2019-03-15T05:05:41.996Z,25.60
2019-03-15T05:08:11.335Z,19.93
2019-03-15T05:10:40.715Z,21.13
2019-03-15T05:13:10.044Z,20.00
2019-03-15T05:15:39.327Z,18.60
2019-03-15T05:18:08.637Z,23.47
2019-03-15T05:20:38.036Z,19.03
2019-03-15T05:23:07.417Z,19.87
2019-03-15T05:25:36.729Z,22.50
2019-03-15T05:28:06.046Z,23.00
2019-03-15T05:30:35.359Z,25.70
2019-03-15T05:33:04.666Z,20.10
2019-03-15T05:35:33.967Z,21.17
2019-03-15T05:38:03.377Z,17.53
2019-03-15T05:40:32.693Z,16.53
2019-03-15T05:43:01.995Z,18.23
2019-03-15T05:45:31.394Z,18.33
2019-03-15T05:48:00.811Z,17.47
2019-03-15T05:50:31.348Z,18.80
2019-03-15T05:53:00.670Z,19.90
2019-03-15T05:55:29.982Z,26.80
2019-03-15T05:57:59.381Z,18.33
2019-03-15T06:00:28.782Z,25.60
2019-03-15T06:02:58.166Z,23.67
2019-03-15T06:05:27.502Z,18.67
2019-03-15T06:07:58.289Z,18.93
2019-03-15T06:10:27.704Z,19.67
2019-03-15T06:12:57.003Z,24.47
2019-03-15T06:15:27.201Z,21.33
2019-03-15T06:17:56.553Z,21.97
2019-03-15T06:20:25.962Z,17.50
2019-03-15T06:22:55.300Z,18.50
2019-03-15T06:25:27.764Z,20.00
2019-03-15T06:27:57.164Z,22.80
2019-03-15T06:30:26.848Z,20.13
2019-03-15T06:32:56.239Z,23.57
2019-03-15T06:35:25.582Z,22.80
2019-03-15T06:37:54.905Z,26.90
2019-03-15T06:40:24.177Z,21.13
2019-03-15T06:42:53.509Z,22.33
2019-03-15T06:45:23.021Z,26.43
2019-03-15T06:47:52.343Z,19.53
2019-03-15T06:50:21.666Z,21.80
2019-03-15T06:52:51.028Z,27.30
2019-03-15T06:55:20.500Z,18.97
2019-03-15T06:57:49.781Z,28.60
2019-03-15T07:00:19.141Z,31.63
2019-03-15T07:02:49.199Z,24.73
2019-03-15T07:05:18.456Z,33.23
2019-03-15T07:07:47.862Z,26.00
2019-03-15T07:10:17.167Z,22.43
2019-03-15T07:12:46.482Z,27.43
2019-03-15T07:15:15.962Z,21.20
2019-03-15T07:17:45.323Z,18.47
2019-03-15T07:20:15.008Z,23.13
2019-03-15T07:22:44.448Z,19.87
2019-03-15T07:25:13.886Z,22.13
2019-03-15T07:27:43.320Z,20.60
2019-03-15T07:30:12.942Z,25.67
2019-03-15T07:32:42.332Z,21.50
2019-03-15T07:35:11.777Z,20.77
2019-03-15T07:37:41.083Z,18.53
2019-03-15T07:40:10.481Z,24.47
2019-03-15T07:42:39.977Z,21.53
2019-03-15T07:45:09.537Z,28.97
2019-03-15T07:47:38.925Z,27.40
2019-03-15T07:50:12.718Z,17.70
2019-03-15T07:52:41.398Z,22.17
2019-03-15T07:55:10.786Z,23.67
2019-03-15T07:57:40.136Z,21.87
2019-03-15T08:00:11.069Z,20.33
2019-03-15T08:02:40.418Z,19.20
2019-03-15T08:05:09.957Z,22.47
2019-03-15T08:07:44.719Z,20.87
2019-03-15T08:10:10.453Z,31.93
2019-03-15T08:12:39.852Z,21.93
2019-03-15T08:15:09.502Z,18.00
2019-03-15T08:17:38.831Z,23.30
2019-03-15T08:20:09.195Z,20.57
2019-03-15T08:22:38.503Z,19.10
2019-03-15T08:25:09.351Z,19.80
2019-03-15T08:27:38.790Z,17.17
2019-03-15T08:30:11.347Z,21.07
2019-03-15T08:32:43.489Z,26.53
2019-03-15T08:35:11.754Z,23.10
2019-03-15T08:37:41.260Z,19.80
2019-03-15T08:40:10.846Z,18.10
2019-03-15T08:42:40.177Z,23.63
2019-03-15T08:45:11.884Z,16.70
2019-03-15T08:47:41.186Z,20.40
2019-03-15T08:50:14.971Z,22.00
2019-03-15T08:52:43.983Z,26.30
2019-03-15T08:55:13.540Z,22.00
2019-03-15T08:57:42.930Z,22.37
2019-03-15T09:00:13.921Z,17.20
2019-03-15T09:02:43.228Z,23.33
2019-03-15T09:05:12.782Z,24.30
2019-03-15T09:07:42.101Z,23.27
2019-03-15T09:10:21.962Z,21.23
2019-03-15T09:12:42.414Z,16.67
2019-03-15T09:15:11.852Z,21.93
2019-03-15T09:17:41.169Z,17.77
2019-03-15T09:20:10.694Z,21.23
2019-03-15T09:22:40.007Z,20.87
2019-03-15T09:25:19.085Z,19.13
2019-03-15T09:27:40.935Z,23.60
2019-03-15T09:30:22.517Z,14.63
2019-03-15T09:32:41.669Z,22.53
2019-03-15T09:35:11.301Z,20.80
2019-03-15T09:37:40.599Z,22.10
2019-03-15T09:40:10.567Z,19.77
2019-03-15T09:42:39.955Z,19.23
2019-03-15T09:45:10.451Z,14.63
2019-03-15T09:47:39.732Z,14.23
2019-03-15T09:50:21.515Z,15.40
2019-03-15T09:52:41.508Z,17.93
2019-03-15T09:55:11.076Z,19.40
2019-03-15T09:57:40.387Z,24.07
2019-03-15T10:00:13.496Z,17.33
2019-03-15T10:02:42.820Z,19.63
2019-03-15T10:05:12.226Z,17.80
2019-03-15T10:07:43.360Z,18.87
2019-03-15T10:10:14.117Z,20.63
2019-03-15T10:12:44.817Z,19.20
2019-03-15T10:15:14.352Z,17.63
2019-03-15T10:17:43.746Z,15.97
2019-03-15T10:20:13.828Z,10.63
2019-03-15T10:22:43.129Z,23.40
2019-03-15T10:25:12.480Z,18.93
2019-03-15T10:27:41.805Z,20.03
2019-03-15T10:30:12.703Z,17.70
2019-03-15T10:32:42.079Z,19.27
2019-03-15T10:35:11.401Z,17.30
2019-03-15T10:37:40.785Z,17.57
2019-03-15T10:40:12.981Z,18.03
2019-03-15T10:42:42.382Z,16.47
2019-03-15T10:45:11.756Z,15.73
2019-03-15T10:47:42.532Z,15.57
2019-03-15T10:50:12.961Z,18.07
2019-03-15T10:52:42.324Z,15.33
2019-03-15T10:55:11.936Z,19.80
2019-03-15T10:57:41.290Z,20.83
2019-03-15T11:00:12.401Z,16.30
2019-03-15T11:02:41.774Z,20.90
2019-03-15T11:05:11.393Z,17.67
2019-03-15T11:07:40.697Z,13.60
2019-03-15T11:10:10.364Z,14.87
2019-03-15T11:12:39.718Z,15.10
2019-03-15T11:15:09.527Z,13.83
2019-03-15T11:17:38.828Z,13.33
2019-03-15T11:20:08.628Z,14.77
2019-03-15T11:22:38.015Z,18.00
2019-03-15T11:25:07.404Z,14.87
2019-03-15T11:27:36.715Z,14.00
2019-03-15T11:30:06.237Z,15.77
2019-03-15T11:32:35.561Z,17.70
2019-03-15T11:35:05.507Z,15.40
2019-03-15T11:37:34.949Z,12.40
2019-03-15T11:40:06.389Z,12.47
2019-03-15T11:42:35.829Z,16.33
2019-03-15T11:45:05.609Z,16.93
2019-03-15T11:47:50.082Z,16.73
2019-03-15T11:50:09.452Z,13.00
2019-03-15T11:52:38.815Z,11.33
2019-03-15T11:55:08.824Z,15.43
2019-03-15T11:57:38.142Z,16.70
2019-03-15T12:00:09.683Z,11.87
2019-03-15T12:02:39.094Z,13.00
2019-03-15T12:05:08.758Z,15.87
2019-03-15T12:07:38.095Z,12.03
2019-03-15T12:10:07.985Z,13.47
2019-03-15T12:12:37.311Z,12.47
2019-03-15T12:15:07.895Z,14.23
2019-03-15T12:17:37.492Z,10.47
2019-03-15T12:20:07.759Z,15.83
2019-03-15T12:22:37.183Z,8.67
2019-03-15T12:25:06.659Z,13.97
2019-03-15T12:27:36.033Z,9.33
2019-03-15T12:30:06.509Z,11.90
2019-03-15T12:32:35.785Z,14.00
2019-03-15T12:35:05.805Z,12.67
2019-03-15T12:37:35.139Z,10.93
2019-03-15T12:40:05.563Z,14.00
2019-03-15T12:42:34.934Z,6.20
2019-03-15T12:45:04.560Z,15.67
2019-03-15T12:47:33.925Z,15.17
2019-03-15T12:50:03.265Z,11.87
2019-03-15T12:52:45.880Z,13.57
2019-03-15T12:55:03.699Z,5.50
2019-03-15T12:57:33.016Z,12.20
2019-03-15T13:00:02.367Z,10.37
2019-03-15T13:02:31.696Z,12.17
2019-03-15T13:05:00.998Z,12.67
2019-03-15T13:07:30.401Z,12.67
2019-03-15T13:09:59.705Z,9.63
2019-03-15T13:12:29.131Z,9.07
2019-03-15T13:14:58.498Z,8.30
2019-03-15T13:17:29.415Z,6.07
2019-03-15T13:19:58.789Z,5.60
2019-03-15T13:22:28.244Z,7.37
2019-03-15T13:24:57.520Z,8.43
2019-03-15T13:27:26.910Z,6.60
2019-03-15T13:29:56.219Z,8.43
2019-03-15T13:32:25.606Z,4.50
2019-03-15T13:34:54.953Z,5.30
2019-03-15T13:37:24.276Z,4.70
2019-03-15T13:39:53.699Z,3.77
2019-03-15T13:42:23.066Z,3.43
2019-03-15T13:44:52.421Z,3.80
2019-03-15T13:47:21.844Z,5.10
2019-03-15T13:49:51.139Z,3.73
2019-03-15T13:52:20.505Z,5.33
2019-03-15T13:54:49.872Z,4.67
2019-03-15T13:57:21.535Z,4.40
2019-03-15T13:59:50.272Z,5.33
2019-03-15T14:02:19.572Z,4.63
2019-03-15T14:04:48.944Z,6.73
2019-03-15T14:07:19.987Z,7.80
2019-03-15T14:09:49.391Z,6.93
2019-03-15T14:12:18.853Z,6.50
2019-03-15T14:14:48.246Z,6.03
2019-03-15T14:17:20.856Z,8.60
2019-03-15T14:19:50.187Z,6.90
2019-03-15T14:22:19.519Z,5.70
2019-03-15T14:24:48.891Z,6.37
2019-03-15T14:27:18.390Z,5.77
2019-03-15T14:29:47.712Z,5.50
2019-03-15T14:32:17.078Z,4.17
2019-03-15T14:34:46.305Z,5.43
2019-03-15T14:37:15.629Z,3.57
2019-03-15T14:39:45.129Z,4.73
2019-03-15T14:42:14.485Z,4.87
2019-03-15T14:44:43.966Z,4.23
2019-03-15T14:47:13.276Z,3.47
2019-03-15T14:49:42.575Z,3.77
2019-03-15T14:52:12.183Z,2.70
2019-03-15T14:54:42.409Z,4.07
2019-03-15T14:57:11.852Z,2.60
2019-03-15T14:59:41.138Z,3.53
2019-03-15T15:02:10.486Z,3.30
2019-03-15T15:04:39.868Z,5.30
2019-03-15T15:07:09.262Z,6.00
2019-03-15T15:09:38.678Z,4.73
2019-03-15T15:12:09.801Z,6.37
2019-03-15T15:14:39.238Z,2.97
2019-03-15T15:17:08.604Z,4.23
2019-03-15T15:19:38.079Z,2.33
2019-03-15T15:22:07.361Z,5.30
2019-03-15T15:24:36.732Z,3.23
2019-03-15T15:27:05.995Z,4.77
2019-03-15T15:29:35.323Z,4.80
2019-03-15T15:32:04.686Z,5.93
2019-03-15T15:34:34.046Z,5.80
2019-03-15T15:37:03.339Z,5.33
2019-03-15T15:39:32.711Z,3.87
2019-03-15T15:42:02.049Z,5.10
2019-03-15T15:44:31.358Z,6.70
2019-03-15T15:47:00.726Z,6.27
2019-03-15T15:49:30.061Z,7.40
2019-03-15T15:51:59.448Z,4.27
2019-03-15T15:54:28.814Z,7.60
2019-03-15T15:56:58.130Z,6.87
2019-03-15T15:59:27.536Z,4.70
2019-03-15T16:01:56.878Z,7.47
2019-03-15T16:04:26.214Z,5.47
2019-03-15T16:06:55.599Z,8.33
2019-03-15T16:09:25.021Z,4.90
2019-03-15T16:11:54.306Z,5.90
2019-03-15T16:14:23.674Z,8.70
2019-03-15T16:16:52.972Z,4.70
2019-03-15T16:19:22.242Z,6.63
2019-03-15T16:21:51.598Z,6.50
2019-03-15T16:24:20.881Z,5.20
2019-03-15T16:26:50.282Z,7.73
2019-03-15T16:29:19.685Z,6.00
2019-03-15T16:31:48.972Z,7.93
2019-03-15T16:34:18.343Z,3.97
2019-03-15T16:36:47.681Z,4.47
2019-03-15T16:39:17.099Z,7.43
2019-03-15T16:41:46.492Z,5.83
2019-03-15T16:44:15.877Z,5.27
2019-03-15T16:46:45.265Z,4.10
2019-03-15T16:49:14.628Z,10.83
2019-03-15T16:51:43.930Z,6.87
2019-03-15T16:54:13.149Z,6.57
2019-03-15T16:56:42.578Z,3.23
2019-03-15T16:59:11.905Z,5.93
2019-03-15T17:01:41.326Z,5.03
2019-03-15T17:04:10.656Z,5.63
2019-03-15T17:06:39.984Z,6.07
2019-03-15T17:09:09.357Z,6.23
2019-03-15T17:11:38.775Z,8.13
2019-03-15T17:14:08.177Z,4.83
2019-03-15T17:16:37.562Z,6.07
2019-03-15T17:19:06.852Z,5.00
2019-03-15T17:21:36.241Z,3.57
2019-03-15T17:24:05.617Z,4.27
2019-03-15T17:26:35.019Z,5.30
2019-03-15T17:29:04.384Z,6.23
2019-03-15T17:31:33.771Z,4.97
2019-03-15T17:34:03.200Z,4.67
2019-03-15T17:36:34.003Z,10.13
2019-03-15T17:39:03.719Z,5.27
2019-03-15T17:41:33.042Z,3.30
2019-03-15T17:44:02.306Z,5.33
2019-03-15T17:46:31.643Z,5.90
2019-03-15T17:49:01.019Z,4.13
2019-03-15T17:51:30.329Z,5.73
2019-03-15T17:53:59.680Z,4.83
2019-03-15T17:56:29.059Z,4.97
2019-03-15T17:59:11.953Z,6.10
2019-03-15T18:01:30.524Z,6.07
2019-03-15T18:04:02.018Z,5.30
2019-03-15T18:06:31.413Z,4.43
2019-03-15T18:09:00.697Z,8.87
2019-03-15T18:11:30.225Z,4.97
2019-03-15T18:13:59.728Z,5.53
2019-03-15T18:16:29.000Z,3.87
2019-03-15T18:18:58.601Z,6.67
2019-03-15T18:21:29.987Z,6.93
2019-03-15T18:23:59.374Z,4.20
2019-03-15T18:26:29.241Z,7.03
2019-03-15T18:28:58.475Z,7.30
2019-03-15T18:31:27.858Z,5.50
2019-03-15T18:33:57.175Z,8.70
2019-03-15T18:36:26.486Z,4.27
2019-03-15T18:38:57.320Z,7.33
2019-03-15T18:41:27.344Z,7.47
2019-03-15T18:43:56.854Z,6.47
2019-03-15T18:46:26.170Z,9.03
2019-03-15T18:48:55.466Z,6.17
2019-03-15T18:51:24.812Z,6.50
2019-03-15T18:53:54.159Z,7.43
2019-03-15T18:56:23.437Z,7.07
2019-03-15T18:58:52.704Z,9.20
2019-03-15T19:01:22.016Z,8.97
2019-03-15T19:03:51.405Z,10.73
2019-03-15T19:06:20.676Z,9.50
2019-03-15T19:08:50.071Z,9.93
2019-03-15T19:11:19.439Z,9.67
2019-03-15T19:13:48.756Z,9.27
2019-03-15T19:16:20.315Z,9.87
2019-03-15T19:18:49.014Z,11.23
2019-03-15T19:21:18.399Z,12.50
2019-03-15T19:23:47.765Z,7.10
2019-03-15T19:26:17.062Z,11.57
2019-03-15T19:28:46.508Z,10.37
2019-03-15T19:31:15.770Z,9.83
2019-03-15T19:33:45.149Z,8.27
2019-03-15T19:36:14.516Z,8.30
2019-03-15T19:38:43.910Z,8.13
2019-03-15T19:41:13.291Z,8.67
2019-03-15T19:43:42.646Z,7.57
2019-03-15T19:46:12.222Z,9.20
2019-03-15T19:48:42.245Z,9.53
2019-03-15T19:51:11.667Z,9.87
2019-03-15T19:53:42.747Z,9.17
2019-03-15T19:56:12.107Z,8.47
2019-03-15T19:58:41.532Z,10.10
2019-03-15T20:01:10.834Z,9.40
2019-03-15T20:03:44.332Z,10.73
2019-03-15T20:06:11.334Z,7.47
2019-03-15T20:08:40.701Z,12.40
2019-03-15T20:11:09.945Z,8.27
2019-03-15T20:13:39.192Z,7.57
2019-03-15T20:16:08.613Z,11.67
2019-03-15T20:18:38.010Z,12.43
2019-03-15T20:21:07.327Z,14.60
2019-03-15T20:23:36.646Z,10.37
2019-03-15T20:26:06.427Z,8.60
2019-03-15T20:28:35.880Z,13.40
2019-03-15T20:31:05.187Z,9.37
2019-03-15T20:33:34.522Z,13.40
2019-03-15T20:36:03.893Z,9.13
2019-03-15T20:38:33.386Z,10.27
2019-03-15T20:41:02.662Z,17.63
2019-03-15T20:43:32.004Z,8.40
2019-03-15T20:46:01.366Z,14.03
2019-03-15T20:48:30.701Z,9.30
2019-03-15T20:50:59.990Z,10.30
2019-03-15T20:53:29.288Z,12.43
2019-03-15T20:55:58.582Z,10.57
2019-03-15T20:58:27.989Z,11.47
2019-03-15T21:00:57.270Z,8.87
2019-03-15T21:03:27.301Z,12.90
2019-03-15T21:05:56.775Z,11.90
2019-03-15T21:08:26.113Z,8.00
2019-03-15T21:10:55.419Z,12.77
2019-03-15T21:13:24.838Z,12.17
2019-03-15T21:15:54.238Z,15.70
2019-03-15T21:18:23.548Z,15.43
2019-03-15T21:20:54.225Z,15.53
2019-03-15T21:23:23.551Z,15.87
2019-03-15T21:25:52.941Z,13.60
2019-03-15T21:28:22.312Z,12.33
2019-03-15T21:30:51.673Z,18.67
2019-03-15T21:33:20.998Z,11.07
2019-03-15T21:35:50.280Z,9.57
2019-03-15T21:38:19.668Z,14.07
2019-03-15T21:40:49.103Z,12.90
2019-03-15T21:43:18.417Z,11.47
2019-03-15T21:45:47.813Z,12.00
2019-03-15T21:48:17.114Z,10.60
2019-03-15T21:50:46.448Z,11.67
2019-03-15T21:53:15.781Z,11.43
2019-03-15T21:55:45.435Z,12.87
2019-03-15T21:58:14.933Z,14.60
2019-03-15T22:00:44.314Z,10.63
2019-03-15T22:03:13.629Z,14.77
2019-03-15T22:05:42.936Z,15.63
2019-03-15T22:08:12.323Z,12.83
2019-03-15T22:10:41.697Z,12.50
2019-03-15T22:13:10.997Z,13.40
2019-03-15T22:15:40.303Z,14.00
2019-03-15T22:18:09.651Z,14.17
2019-03-15T22:20:41.892Z,13.73
2019-03-15T22:23:11.199Z,13.07
2019-03-15T22:25:40.526Z,14.47
2019-03-15T22:28:09.879Z,17.63
2019-03-15T22:30:39.293Z,16.37
2019-03-15T22:33:08.559Z,16.07
2019-03-15T22:35:37.933Z,14.67
2019-03-15T22:38:07.223Z,17.37
2019-03-15T22:40:36.596Z,13.90
2019-03-15T22:43:06.097Z,18.97
2019-03-15T22:45:35.446Z,16.73
2019-03-15T22:48:04.930Z,14.73
2019-03-15T22:50:34.296Z,13.57
2019-03-15T22:53:03.754Z,18.67
2019-03-15T22:55:32.963Z,14.23
2019-03-15T22:58:02.256Z,18.30
2019-03-15T23:00:36.206Z,15.03
2019-03-15T23:03:06.381Z,18.30
2019-03-15T23:05:35.681Z,18.10
2019-03-15T23:08:05.024Z,15.77
2019-03-15T23:10:34.423Z,15.23
2019-03-15T23:13:03.936Z,23.83
2019-03-15T23:15:33.265Z,11.07
2019-03-15T23:18:02.610Z,15.83
2019-03-15T23:20:31.936Z,21.33
2019-03-15T23:23:01.334Z,17.80
2019-03-15T23:25:30.652Z,19.90
2019-03-15T23:28:00.084Z,17.87
2019-03-15T23:30:29.493Z,15.83
2019-03-15T23:32:58.879Z,9.47
2019-03-15T23:35:28.146Z,21.63
2019-03-15T23:37:57.471Z,19.87
2019-03-15T23:40:26.728Z,18.17
2019-03-15T23:42:56.009Z,19.03
2019-03-15T23:45:25.848Z,16.43
2019-03-15T23:47:55.106Z,20.03
2019-03-15T23:50:24.400Z,19.37
2019-03-15T23:52:53.696Z,17.93
2019-03-15T23:55:22.961Z,19.63
2019-03-15T23:57:52.275Z,21.37
